Time;durP1;ratioP1;P1;durP2;ratioP2;P2;SDS_P1;SDS_P2;PMS_P1;PMS_P2;Temp;Humidity;BMP_temperature;BMP_pressure;BME280_temperature;BME280_humidity;BME280_pressure;Samples;Min_cycle;Max_cycle;Signal;HPM_P1;HPM_P2
2022/12/13 00:01:27;;;;;;;26.33;15.43;;;;;;;;;;5059116;28;20037;-67
2022/12/13 00:03:53;;;;;;;25.70;14.52;;;;;;;;;;5053263;28;20131;-67
2022/12/13 00:06:19;;;;;;;25.95;14.57;;;;;;;;;;5074801;28;20087;-69
2022/12/13 00:08:46;;;;;;;27.20;15.60;;;;;;;;;;5075831;28;20047;-67
2022/12/13 00:11:12;;;;;;;26.02;15.45;;;;;;;;;;5078178;28;20036;-67
2022/12/13 00:13:39;;;;;;;24.05;15.07;;;;;;;;;;5077503;28;20094;-67
2022/12/13 00:16:06;;;;;;;27.77;15.18;;;9.90;90.90;;;;;;5077168;28;20091;-67
2022/12/13 00:18:31;;;;;;;25.13;16.23;;;9.60;92.00;;;;;;5057777;28;20045;-67
2022/12/13 00:20:57;;;;;;;27.38;15.15;;;9.90;92.20;;;;;;5057020;28;20544;-67
2022/12/13 00:23:23;;;;;;;24.80;15.68;;;9.80;92.00;;;;;;5061112;28;20044;-67
2022/12/13 00:25:49;;;;;;;24.67;14.25;;;9.80;91.90;;;;;;5076941;28;20126;-67
2022/12/13 00:28:15;;;;;;;28.17;15.60;;;;;;;;;;5077077;28;20040;-67
2022/12/13 00:30:41;;;;;;;23.85;15.05;;;;;;;;;;5078711;28;20541;-67
2022/12/13 00:33:07;;;;;;;26.58;14.85;;;9.90;92.00;;;;;;5079206;28;20043;-67
2022/12/13 00:35:33;;;;;;;23.80;14.23;;;;;;;;;;5081052;28;20052;-67
2022/12/13 00:37:59;;;;;;;24.85;15.23;;;9.80;92.10;;;;;;5056927;28;20055;-66
2022/12/13 00:40:27;;;;;;;28.55;15.13;;;10.00;92.00;;;;;;5057005;28;20045;-69
2022/12/13 00:46:22;;;;;;;24.95;15.38;;;9.60;90.90;;;;;;5056677;28;20067;-69
2022/12/13 00:48:49;;;;;;;26.17;14.70;;;;;;;;;;5056338;28;20049;-69
2022/12/13 00:51:15;;;;;;;25.48;14.35;;;9.90;90.90;;;;;;5056708;28;20094;-69
2022/12/13 00:53:40;;;;;;;27.05;15.25;;;9.70;92.00;;;;;;5065429;28;20556;-70
2022/12/13 00:56:13;;;;;;;25.10;14.75;;;9.60;91.90;;;;;;5075696;28;20044;-68
2022/12/13 00:58:39;;;;;;;25.25;14.43;;;;;;;;;;5063866;28;20057;-69
2022/12/13 01:01:07;;;;;;;26.52;15.00;;;9.10;91.70;;;;;;5078411;28;20170;-69
2022/12/13 01:03:33;;;;;;;26.40;15.52;;;;;;;;;;5085454;28;20044;-69
2022/12/13 01:05:59;;;;;;;25.70;14.73;;;9.50;91.80;;;;;;5083451;28;20047;-69
2022/12/13 01:08:26;;;;;;;26.60;14.95;;;9.70;91.90;;;;;;5078910;28;20041;-69
2022/12/13 01:10:52;;;;;;;26.98;15.98;;;;;;;;;;5081159;28;20058;-67
2022/12/13 01:13:18;;;;;;;25.80;14.93;;;;;;;;;;5094312;28;20044;-67
2022/12/13 01:15:45;;;;;;;27.70;15.23;;;;;;;;;;5063048;28;20036;-67
2022/12/13 01:18:11;;;;;;;25.35;15.25;;;;;;;;;;5086985;28;20089;-69
2022/12/13 01:20:37;;;;;;;24.08;14.15;;;;;;;;;;5090305;28;20044;-66
2022/12/13 01:23:04;;;;;;;27.05;15.95;;;;;;;;;;5077821;28;20572;-69
2022/12/13 01:25:32;;;;;;;25.73;15.02;;;9.30;91.90;;;;;;5070611;28;20539;-69
2022/12/13 01:27:59;;;;;;;26.25;14.85;;;9.30;90.50;;;;;;5075506;28;20448;-70
2022/12/13 01:30:25;;;;;;;26.35;15.32;;;;;;;;;;5089729;28;20095;-70
2022/12/13 01:32:51;;;;;;;25.42;15.73;;;;;;;;;;5078490;28;20036;-69
2022/12/13 01:35:17;;;;;;;26.85;14.48;;;9.30;92.00;;;;;;5082785;28;20086;-69
2022/12/13 01:37:42;;;;;;;26.20;15.02;;;9.00;91.90;;;;;;5094676;28;20048;-68
2022/12/13 01:40:09;;;;;;;27.08;15.82;;;9.60;91.00;;;;;;5095121;28;20055;-69
2022/12/13 01:42:38;;;;;;;26.98;15.35;;;9.70;90.20;;;;;;5083828;28;20032;-70
2022/12/13 01:45:14;;;;;;;26.17;15.43;;;9.60;90.90;;;;;;5085579;28;20049;-70
2022/12/13 01:47:42;;;;;;;26.38;15.25;;;9.60;92.00;;;;;;5072249;28;20039;-69
2022/12/13 01:50:16;;;;;;;24.67;14.43;;;9.60;90.70;;;;;;5072208;28;20056;-69
2022/12/13 01:52:42;;;;;;;28.27;16.23;;;9.50;92.00;;;;;;5090118;28;20503;-69
2022/12/13 01:55:08;;;;;;;28.35;15.60;;;9.80;92.10;;;;;;5068852;28;20130;-70
2022/12/13 01:57:34;;;;;;;27.58;15.82;;;9.40;91.90;;;;;;5088941;28;20036;-69
2022/12/13 02:00:00;;;;;;;30.23;15.95;;;9.40;91.80;;;;;;5069700;28;20060;-69
2022/12/13 02:02:26;;;;;;;27.33;15.60;;;9.30;91.80;;;;;;5055723;28;20039;-66
2022/12/13 02:05:10;;;;;;;23.88;14.65;;;9.50;91.80;;;;;;5074987;28;20047;-67
2022/12/13 02:07:37;;;;;;;28.88;16.08;;;9.60;91.80;;;;;;5065946;28;20036;-69
2022/12/13 02:10:03;;;;;;;25.63;15.13;;;9.50;91.20;;;;;;5067758;28;20048;-70
2022/12/13 02:12:31;;;;;;;27.48;15.48;;;9.60;91.90;;;;;;5071946;28;20040;-68
2022/12/13 02:15:01;;;;;;;24.73;14.88;;;9.40;90.70;;;;;;5092297;28;20055;-70
2022/12/13 02:17:27;;;;;;;27.17;15.07;;;9.40;91.70;;;;;;5027522;28;20045;-67
2022/12/13 02:20:05;;;;;;;26.38;15.23;;;9.20;90.60;;;;;;5073846;28;20048;-67
2022/12/13 02:22:55;;;;;;;25.30;15.00;;;9.50;91.80;;;;;;5056829;28;20120;-67
2022/12/13 02:25:24;;;;;;;24.95;15.40;;;9.40;89.60;;;;;;5058075;28;20241;-67
2022/12/13 02:28:07;;;;;;;24.55;15.07;;;9.40;91.70;;;;;;5074638;28;20049;-68
2022/12/13 02:30:45;;;;;;;27.80;14.88;;;9.20;91.70;;;;;;5074500;28;20490;-67
2022/12/13 02:33:29;;;;;;;25.33;15.57;;;9.40;90.00;;;;;;5048603;28;20064;-67
2022/12/13 02:36:23;;;;;;;24.20;15.13;;;9.30;89.40;;;;;;5056541;28;20048;-66
2022/12/13 02:39:09;;;;;;;27.27;14.93;;;9.30;90.40;;;;;;5074282;28;20048;-68
2022/12/13 02:41:37;;;;;;;24.20;14.27;;;;;;;;;;5059056;28;20086;-69
2022/12/13 02:44:14;;;;;;;25.63;14.18;;;9.10;90.60;;;;;;5038526;28;20072;-70
2022/12/13 02:46:42;;;;;;;26.55;14.20;;;9.30;90.50;;;;;;5059563;28;20048;-69
2022/12/13 02:49:08;;;;;;;24.83;14.43;;;9.40;91.80;;;;;;5033598;28;20064;-68
2022/12/13 02:51:34;;;;;;;27.27;15.35;;;9.50;91.90;;;;;;5029352;28;20092;-71
2022/12/13 02:54:00;;;;;;;23.52;14.85;;;9.40;91.80;;;;;;5047809;28;20049;-69
2022/12/13 02:56:26;;;;;;;26.38;15.40;;;9.50;91.90;;;;;;5053047;28;20037;-69
2022/12/13 02:58:53;;;;;;;27.65;16.00;;;9.30;91.60;;;;;;5043573;28;20049;-69
2022/12/13 03:01:45;;;;;;;28.13;15.32;;;9.40;91.70;;;;;;5033977;28;20126;-69
2022/12/13 03:04:36;;;;;;;25.25;15.43;;;9.40;91.80;;;;;;5051851;28;20041;-69
2022/12/13 03:07:17;;;;;;;28.42;15.52;;;9.30;90.00;;;;;;5050334;28;20037;-69
2022/12/13 03:09:52;;;;;;;25.23;15.30;;;9.30;90.60;;;;;;5039951;28;20041;-69
2022/12/13 03:15:18;;;;;;;25.92;15.20;;;;;;;;;;5035605;28;20167;-70
2022/12/13 03:17:51;;;;;;;27.63;15.60;;;9.30;90.60;;;;;;5049114;28;20044;-70
2022/12/13 03:20:18;;;;;;;27.35;15.15;;;9.20;91.70;;;;;;5016414;28;20107;-69
2022/12/13 03:22:44;;;;;;;26.30;15.73;;;;;;;;;;5047724;28;20045;-69
2022/12/13 03:25:10;;;;;;;27.80;16.13;;;;;;;;;;5039625;28;20177;-69
2022/12/13 03:27:36;;;;;;;27.67;15.13;;;;;;;;;;5046588;28;20052;-70
2022/12/13 03:30:02;;;;;;;26.40;15.45;;;9.30;91.80;;;;;;5052193;28;20118;-70
2022/12/13 03:32:28;;;;;;;29.65;15.45;;;;;;;;;;5047591;28;20419;-69
2022/12/13 03:34:54;;;;;;;28.85;15.15;;;9.30;91.80;;;;;;5053687;28;20044;-69
2022/12/13 03:37:20;;;;;;;26.77;15.65;;;9.50;91.80;;;;;;5052587;28;20103;-68
2022/12/13 03:39:45;;;;;;;28.58;15.90;;;9.30;91.70;;;;;;5021336;28;20037;-69
2022/12/13 03:42:11;;;;;;;28.05;15.30;;;9.40;90.70;;;;;;5017358;28;20467;-68
2022/12/13 03:44:37;;;;;;;27.80;15.85;;;;;;;;;;5038137;28;20045;-65
2022/12/13 03:47:03;;;;;;;26.77;16.45;;;9.30;90.60;;;;;;5051778;28;20099;-66
2022/12/13 03:49:29;;;;;;;28.23;15.70;;;9.40;91.80;;;;;;5083591;28;20489;-68
2022/12/13 03:51:55;;;;;;;25.60;15.02;;;9.30;91.70;;;;;;5087530;28;20059;-68
2022/12/13 03:54:20;;;;;;;28.25;15.95;;;9.50;91.80;;;;;;5088214;28;20059;-67
2022/12/13 03:56:46;;;;;;;27.30;14.82;;;9.00;91.60;;;;;;5092345;28;20481;-68
2022/12/13 03:59:12;;;;;;;27.20;15.13;;;9.20;90.60;;;;;;5081259;28;20056;-68
2022/12/13 04:01:38;;;;;;;29.10;15.77;;;9.20;91.70;;;;;;5060067;28;20056;-69
2022/12/13 04:04:03;;;;;;;26.52;15.32;;;9.30;91.70;;;;;;5085109;28;20115;-69
2022/12/13 04:06:29;;;;;;;28.33;16.02;;;;;;;;;;5085959;28;20044;-64
2022/12/13 04:08:55;;;;;;;28.70;16.83;;;9.40;91.70;;;;;;5093068;28;20120;-69
2022/12/13 04:14:05;;;;;;;28.55;14.73;;;;;;;;;;5085487;28;20044;-66
2022/12/13 04:16:31;;;;;;;26.42;15.50;;;9.50;91.70;;;;;;5071999;28;20051;-69
2022/12/13 04:18:57;;;;;;;28.58;16.08;;;9.30;91.70;;;;;;5067827;28;20127;-69
2022/12/13 04:21:23;;;;;;;28.45;15.93;;;9.00;91.60;;;;;;5092003;28;20105;-69
2022/12/13 04:23:48;;;;;;;27.63;14.93;;;9.10;90.50;;;;;;5093496;28;20044;-69
2022/12/13 04:26:14;;;;;;;30.60;16.58;;;;;;;;;;5062887;28;20118;-69
2022/12/13 04:28:40;;;;;;;27.40;15.90;;;9.20;91.90;;;;;;5085950;28;20038;-69
2022/12/13 04:31:06;;;;;;;26.00;16.05;;;8.90;91.70;;;;;;5077766;28;20572;-70
2022/12/13 04:33:32;;;;;;;26.85;15.43;;;9.10;91.60;;;;;;5077305;28;20041;-69
2022/12/13 04:35:58;;;;;;;25.15;14.65;;;9.20;91.70;;;;;;5088998;28;20052;-69
2022/12/13 04:38:23;;;;;;;27.40;16.45;;;9.10;91.60;;;;;;5069542;28;20097;-68
2022/12/13 04:40:49;;;;;;;26.77;14.70;;;9.20;90.50;;;;;;5075413;28;20057;-69
2022/12/13 04:43:15;;;;;;;26.00;15.45;;;9.20;91.60;;;;;;5092270;28;20510;-69
2022/12/13 04:45:41;;;;;;;30.30;16.33;;;9.10;91.50;;;;;;5092094;28;20447;-69
2022/12/13 04:48:07;;;;;;;28.85;15.65;;;9.10;90.40;;;;;;5087487;28;20544;-69
2022/12/13 04:50:33;;;;;;;27.45;15.73;;;;;;;;;;5049404;28;20037;-65
2022/12/13 04:52:59;;;;;;;26.65;14.73;;;9.10;91.60;;;;;;5094648;28;20036;-69
2022/12/13 04:55:25;;;;;;;28.42;15.80;;;9.20;91.60;;;;;;5061547;28;20048;-69
2022/12/13 04:57:51;;;;;;;26.95;15.60;;;;;;;;;;5091582;28;20135;-68
2022/12/13 05:00:16;;;;;;;28.05;16.48;;;9.00;91.50;;;;;;5074433;28;20066;-69
2022/12/13 05:02:43;;;;;;;28.48;16.13;;;;;;;;;;5074809;28;20037;-67
2022/12/13 05:05:09;;;;;;;29.92;17.50;;;9.10;91.50;;;;;;5075640;28;20071;-69
2022/12/13 05:07:34;;;;;;;29.15;16.55;;;9.10;91.50;;;;;;5061753;28;20422;-68
2022/12/13 05:10:00;;;;;;;29.20;15.70;;;8.70;91.40;;;;;;5090956;28;20043;-68
2022/12/13 05:12:26;;;;;;;27.27;15.43;;;8.90;91.50;;;;;;5094591;28;20079;-69
2022/12/13 05:14:52;;;;;;;25.42;15.13;;;9.10;90.40;;;;;;5095120;28;20071;-69
2022/12/13 05:17:18;;;;;;;26.65;16.00;;;9.10;91.50;;;;;;5094090;28;20556;-69
2022/12/13 05:19:44;;;;;;;25.58;15.57;;;9.30;91.50;;;;;;5075694;28;20124;-66
2022/12/13 05:22:14;;;;;;;25.83;15.25;;;9.30;91.50;;;;;;5045808;28;20045;-66
2022/12/13 05:24:41;;;;;;;27.48;15.95;;;9.20;91.50;;;;;;5065535;28;20044;-66
2022/12/13 05:27:08;;;;;;;27.90;16.40;;;;;;;;;;5061528;28;20041;-66
2022/12/13 05:29:35;;;;;;;27.05;15.95;;;9.30;91.60;;;;;;5075318;28;20449;-66
2022/12/13 05:32:01;;;;;;;27.65;16.00;;;;;;;;;;5076074;28;20168;-66
2022/12/13 05:34:27;;;;;;;26.55;15.65;;;9.10;91.50;;;;;;5075579;28;20032;-66
2022/12/13 05:36:52;;;;;;;28.38;16.20;;;9.10;91.50;;;;;;5075983;28;20119;-69
2022/12/13 05:39:18;;;;;;;27.75;15.52;;;9.10;91.00;;;;;;5075461;28;20490;-69
2022/12/13 05:41:44;;;;;;;30.55;16.55;;;9.20;91.60;;;;;;5066110;28;20079;-70
2022/12/13 05:44:12;;;;;;;26.65;16.50;;;9.10;91.40;;;;;;5059127;28;20048;-69
2022/12/13 05:46:38;;;;;;;28.38;16.60;;;;;;;;;;5075430;28;20052;-69
2022/12/13 05:49:04;;;;;;;27.55;16.17;;;9.10;90.40;;;;;;5075494;28;20075;-69
2022/12/13 05:51:30;;;;;;;29.63;16.08;;;9.10;91.60;;;;;;5075501;28;20049;-70
2022/12/13 05:53:55;;;;;;;28.83;16.08;;;9.00;91.40;;;;;;5092549;28;20086;-68
2022/12/13 05:56:21;;;;;;;27.25;16.38;;;9.20;91.50;;;;;;5077427;28;20044;-69
2022/12/13 05:58:47;;;;;;;26.25;15.90;;;9.30;91.40;;;;;;5075530;28;20045;-68
2022/12/13 06:01:13;;;;;;;27.73;15.50;;;9.10;91.40;;;;;;5059505;28;20501;-68
2022/12/13 06:03:40;;;;;;;24.73;15.07;;;9.00;90.30;;;;;;5095439;28;20036;-70
2022/12/13 06:06:06;;;;;;;27.83;16.52;;;8.80;91.40;;;;;;5094485;28;20397;-69
2022/12/13 06:08:32;;;;;;;28.80;16.40;;;8.90;90.40;;;;;;5090291;28;20043;-69
2022/12/13 06:10:58;;;;;;;27.60;15.52;;;9.00;91.40;;;;;;5066340;28;20116;-69
2022/12/13 06:13:25;;;;;;;27.08;15.95;;;;;;;;;;5094090;28;20109;-68
2022/12/13 06:15:50;;;;;;;26.73;15.32;;;8.80;90.30;;;;;;5081937;28;20558;-69
2022/12/13 06:18:16;;;;;;;29.02;16.95;;;9.30;91.40;;;;;;5088755;28;20127;-68
2022/12/13 06:20:42;;;;;;;25.75;15.73;;;9.10;90.30;;;;;;5089979;28;20123;-68
2022/12/13 06:23:08;;;;;;;29.67;16.73;;;9.00;91.30;;;;;;5076845;28;20053;-65
2022/12/13 06:25:35;;;;;;;27.33;16.13;;;9.10;90.10;;;;;;5062612;28;20037;-66
2022/12/13 06:28:02;;;;;;;30.27;16.30;;;9.20;91.40;;;;;;5054665;28;20037;-64
2022/12/13 06:30:28;;;;;;;25.27;15.38;;;9.30;89.50;;;;;;5054493;28;20124;-66
2022/12/13 06:32:54;;;;;;;25.15;15.00;;;;;;;;;;5055385;28;20048;-66
2022/12/13 06:35:20;;;;;;;28.73;15.95;;;;;;;;;;5054735;28;20045;-66
2022/12/13 06:37:46;;;;;;;26.73;14.88;;;;;;;;;;5055596;28;20387;-66
2022/12/13 06:40:12;;;;;;;28.10;15.73;;;;;;;;;;5036565;28;20047;-66
2022/12/13 06:42:38;;;;;;;26.05;14.38;;;9.00;91.40;;;;;;5073999;28;20045;-67
2022/12/13 06:45:05;;;;;;;25.95;14.77;;;9.00;91.30;;;;;;5074651;28;20105;-69
2022/12/13 06:47:32;;;;;;;28.10;15.73;;;;;;;;;;5072593;28;20098;-69
2022/12/13 06:49:58;;;;;;;28.55;16.77;;;;;;;;;;5062928;28;20147;-69
2022/12/13 06:52:23;;;;;;;28.77;16.13;;;9.10;91.40;;;;;;5054521;28;20052;-69
2022/12/13 06:54:49;;;;;;;27.42;15.38;;;9.10;91.30;;;;;;5054415;28;20049;-68
2022/12/13 06:57:15;;;;;;;27.58;15.98;;;;;;;;;;5054772;28;20498;-68
2022/12/13 06:59:41;;;;;;;25.70;15.38;;;9.00;91.30;;;;;;5073935;28;20048;-68
2022/12/13 07:02:07;;;;;;;28.25;15.88;;;;;;;;;;5077183;28;20036;-69
2022/12/13 07:04:33;;;;;;;27.10;16.45;;;9.00;91.20;;;;;;5069009;28;20548;-69
2022/12/13 07:06:59;;;;;;;27.13;16.23;;;;;;;;;;5075430;28;20040;-69
2022/12/13 07:09:25;;;;;;;26.40;16.20;;;;;;;;;;5090302;28;20094;-69
2022/12/13 07:11:51;;;;;;;29.90;16.90;;;;;;;;;;5085340;28;20050;-69
2022/12/13 07:14:17;;;;;;;29.67;16.88;;;9.00;91.20;;;;;;5087726;28;20127;-70
2022/12/13 07:16:43;;;;;;;26.90;15.88;;;9.00;91.30;;;;;;5090535;28;20556;-69
2022/12/13 07:19:09;;;;;;;28.40;16.80;;;8.90;91.00;;;;;;5093302;28;20036;-69
2022/12/13 07:21:35;;;;;;;28.80;15.93;;;9.10;90.10;;;;;;5059510;28;20043;-65
2022/12/13 07:24:01;;;;;;;30.02;16.85;;;;;;;;;;5071137;28;20170;-66
2022/12/13 07:26:27;;;;;;;30.88;17.60;;;9.00;91.20;;;;;;5093197;28;20032;-66
2022/12/13 07:28:53;;;;;;;27.20;15.63;;;9.00;90.10;;;;;;5090912;28;20443;-68
2022/12/13 07:31:19;;;;;;;30.85;17.23;;;8.70;91.10;;;;;;5093004;28;20050;-69
2022/12/13 07:33:45;;;;;;;31.58;17.48;;;;;;;;;;5082210;28;20036;-69
2022/12/13 07:36:12;;;;;;;30.48;17.15;;;;;;;;;;5077119;28;20029;-70
2022/12/13 07:38:38;;;;;;;32.13;16.92;;;;;;;;;;5092895;28;20417;-69
2022/12/13 07:41:04;;;;;;;32.78;17.55;;;;;;;;;;5068069;28;20045;-69
2022/12/13 07:43:31;;;;;;;30.40;17.40;;;;;;;;;;5093903;28;20461;-70
2022/12/13 07:45:58;;;;;;;29.55;16.90;;;8.90;91.10;;;;;;5090392;28;20085;-65
2022/12/13 07:48:24;;;;;;;30.50;17.23;;;8.90;90.10;;;;;;5085385;28;20052;-65
2022/12/13 07:50:50;;;;;;;30.63;16.92;;;;;;;;;;5087232;28;20051;-63
2022/12/13 07:53:16;;;;;;;29.98;16.50;;;;;;;;;;5061673;28;20036;-62
2022/12/13 07:55:42;;;;;;;29.58;17.02;;;;;;;;;;5090984;28;20056;-66
2022/12/13 07:58:12;;;;;;;29.58;17.05;;;9.10;91.10;;;;;;5078141;28;20070;-61
2022/12/13 08:00:39;;;;;;;26.27;16.27;;;9.00;91.10;;;;;;5087634;28;20429;-62
2022/12/13 08:03:06;;;;;;;25.70;15.05;;;;;;;;;;5075439;28;20044;-63
2022/12/13 08:05:32;;;;;;;30.00;16.35;;;;;;;;;;5088938;28;20511;-67
2022/12/13 08:07:59;;;;;;;26.95;15.93;;;9.20;89.60;;;;;;5075824;28;20128;-66
2022/12/13 08:10:25;;;;;;;31.02;17.33;;;9.00;91.00;;;;;;5053784;28;20113;-66
2022/12/13 08:12:51;;;;;;;30.13;16.05;;;;;;;;;;5076156;28;20052;-67
2022/12/13 08:15:17;;;;;;;29.52;16.35;;;8.90;90.90;;;;;;5076791;28;20131;-67
2022/12/13 08:17:43;;;;;;;28.88;16.48;;;;;;;;;;5075078;28;20119;-67
2022/12/13 08:20:09;;;;;;;29.08;16.05;;;9.10;91.00;;;;;;5079820;28;20048;-67
2022/12/13 08:22:35;;;;;;;29.05;16.45;;;;;;;;;;5051763;28;20040;-67
2022/12/13 08:25:01;;;;;;;24.80;15.38;;;9.20;91.00;;;;;;5087484;28;20044;-66
2022/12/13 08:27:27;;;;;;;27.58;15.10;;;9.10;90.90;;;;;;5086885;28;20060;-62
2022/12/13 08:29:53;;;;;;;27.13;17.05;;;9.00;90.90;;;;;;5088971;28;20424;-66
2022/12/13 08:32:18;;;;;;;28.58;16.25;;;9.10;91.00;;;;;;5078834;28;20044;-67
2022/12/13 08:34:44;;;;;;;26.00;15.98;;;;;;;;;;5066649;28;20483;-67
2022/12/13 08:37:11;;;;;;;26.58;16.48;;;;;;;;;;5072240;28;20080;-67
2022/12/13 08:39:37;;;;;;;28.63;15.77;;;;;;;;;;5077426;28;20101;-66
2022/12/13 08:42:12;;;;;;;28.38;16.38;;;9.10;87.90;;;;;;5076608;28;20052;-67
2022/12/13 08:44:38;;;;;;;27.60;16.88;;;;;;;;;;5073614;28;20048;-66
2022/12/13 08:47:04;;;;;;;29.67;16.23;;;;;;;;;;5072405;28;20053;-66
2022/12/13 08:49:31;;;;;;;28.67;15.90;;;;;;;;;;5075905;28;20055;-67
2022/12/13 08:51:57;;;;;;;28.20;15.90;;;;;;;;;;5097081;28;20052;-66
2022/12/13 08:54:24;;;;;;;29.83;16.60;;;;;;;;;;5077823;28;20108;-67
2022/12/13 08:56:50;;;;;;;26.48;15.70;;;;;;;;;;5075649;28;20125;-68
2022/12/13 08:59:17;;;;;;;25.45;15.30;;;9.30;91.00;;;;;;5077615;28;20504;-66
2022/12/13 09:01:43;;;;;;;28.15;15.30;;;;;;;;;;5084171;28;20120;-66
2022/12/13 09:04:09;;;;;;;28.38;16.00;;;;;;;;;;5081135;28;20036;-66
2022/12/13 09:06:36;;;;;;;29.38;14.27;;;;;;;;;;5082067;28;20039;-66
2022/12/13 09:09:02;;;;;;;27.20;14.82;;;;;;;;;;5096398;28;20052;-67
2022/12/13 09:11:28;;;;;;;28.88;15.38;;;;;;;;;;5077824;28;20044;-64
2022/12/13 09:13:54;;;;;;;25.85;15.55;;;;;;;;;;5063577;28;20048;-67
2022/12/13 09:16:23;;;;;;;23.85;15.07;;;9.10;90.80;;;;;;5083304;28;20388;-66
2022/12/13 09:18:52;;;;;;;27.90;15.65;;;9.20;88.60;;;;;;5073481;28;20520;-66
2022/12/13 09:21:18;;;;;;;27.13;15.73;;;9.20;91.00;;;;;;5075752;28;20078;-67
2022/12/13 09:23:44;;;;;;;27.63;16.83;;;;;;;;;;5080774;28;20032;-67
2022/12/13 09:26:13;;;;;;;28.08;16.20;;;9.30;89.40;;;;;;5060230;28;20083;-67
2022/12/13 09:28:39;;;;;;;26.40;15.25;;;;;;;;;;5090445;28;20048;-67
2022/12/13 09:31:10;;;;;;;28.30;15.95;;;9.40;89.40;;;;;;5076312;28;20048;-66
2022/12/13 09:33:36;;;;;;;29.85;16.92;;;;;;;;;;5049544;28;20045;-68
2022/12/13 09:36:04;;;;;;;26.25;15.35;;;9.40;89.20;;;;;;5068769;28;20040;-68
2022/12/13 09:38:30;;;;;;;28.48;16.77;;;9.20;90.90;;;;;;5094996;28;20044;-67
2022/12/13 09:40:57;;;;;;;30.50;17.08;;;;;;;;;;5072562;28;20051;-67
2022/12/13 09:43:24;;;;;;;26.58;15.60;;;9.50;89.50;;;;;;5058080;28;20044;-67
2022/12/13 09:45:50;;;;;;;25.98;16.88;;;;;;;;;;5060820;28;20032;-68
2022/12/13 09:48:17;;;;;;;26.95;16.38;;;9.40;89.50;;;;;;5095730;28;20044;-67
2022/12/13 09:50:43;;;;;;;26.33;15.50;;;9.00;90.90;;;;;;5078069;28;20541;-68
2022/12/13 09:53:10;;;;;;;26.92;16.65;;;9.50;88.80;;;;;;5090913;28;20174;-67
2022/12/13 09:55:47;;;;;;;27.05;16.52;;;9.10;88.20;;;;;;5041680;28;20047;-67
2022/12/13 09:58:27;;;;;;;25.75;16.00;;;9.20;90.00;;;;;;5021415;28;20049;-69
2022/12/13 10:00:54;;;;;;;24.75;15.68;;;9.40;90.00;;;;;;5069963;28;20509;-67
2022/12/13 10:03:20;;;;;;;27.90;17.10;;;;;;;;;;5057887;28;20037;-67
2022/12/13 10:05:55;;;;;;;27.45;15.95;;;9.50;91.00;;;;;;5075236;28;20045;-67
2022/12/13 10:08:23;;;;;;;28.45;16.90;;;9.50;91.10;;;;;;5075407;28;20040;-66
2022/12/13 10:10:50;;;;;;;26.55;15.90;;;9.50;89.60;;;;;;5057333;28;20110;-70
2022/12/13 10:13:35;;;;;;;29.48;16.75;;;9.60;91.00;;;;;;5063167;28;20040;-67
2022/12/13 10:16:05;;;;;;;28.55;17.20;;;9.40;91.00;;;;;;5055193;28;20124;-69
2022/12/13 10:18:37;;;;;;;25.55;16.38;;;9.60;91.00;;;;;;5046842;28;20412;-68
2022/12/13 10:21:50;;;;;;;25.58;15.15;;;9.80;89.60;;;;;;5094045;28;20036;-62
2022/12/13 10:24:29;;;;;;;28.17;15.80;;;9.90;88.60;;;;;;5086244;28;20059;-61
2022/12/13 10:27:15;;;;;;;28.88;17.10;;;9.80;89.90;;;;;;5092454;28;20389;-65
2022/12/13 10:30:01;;;;;;;28.23;16.70;;;;;;;;;;5056011;28;20087;-67
2022/12/13 10:32:27;;;;;;;29.27;17.13;;;;;;;;;;5070061;28;20043;-66
2022/12/13 10:34:54;;;;;;;29.13;17.10;;;9.90;91.00;;;;;;5036322;28;20055;-68
2022/12/13 10:37:22;;;;;;;27.80;16.27;;;10.00;91.10;;;;;;5056943;28;20417;-69
2022/12/13 10:39:49;;;;;;;28.33;16.05;;;;;;;;;;5091074;28;20131;-69
2022/12/13 10:42:16;;;;;;;29.67;17.42;;;10.00;91.10;;;;;;5094431;28;20094;-68
2022/12/13 10:44:42;;;;;;;24.90;15.63;;;;;;;;;;5094786;28;20048;-68
2022/12/13 10:47:21;;;;;;;27.67;16.52;;;10.00;88.70;;;;;;5085240;28;20040;-69
2022/12/13 10:49:54;;;;;;;26.75;16.50;;;10.10;91.20;;;;;;5035889;28;20084;-66
2022/12/13 10:52:22;;;;;;;;;;;10.10;90.20;;;;;;5049841;28;20050;-68
2022/12/13 10:54:48;;;;;;;27.27;16.25;;;10.10;91.10;;;;;;5067711;28;19924;-69
2022/12/13 10:57:15;;;;;;;27.92;16.73;;;;;;;;;;5052949;28;20467;-68
2022/12/13 10:59:48;;;;;;;28.10;16.83;;;10.20;91.20;;;;;;5049323;28;20044;-68
2022/12/13 11:02:33;;;;;;;27.73;17.00;;;10.50;89.40;;;;;;5069052;28;20363;-68
2022/12/13 11:05:00;;;;;;;27.25;16.58;;;10.30;91.20;;;;;;5044666;28;20099;-69
2022/12/13 11:07:32;;;;;;;30.40;16.75;;;10.40;88.90;;;;;;5056601;28;20480;-70
2022/12/13 11:10:14;;;;;;;27.38;16.77;;;10.80;91.30;;;;;;5062400;28;20552;-69
2022/12/13 11:12:40;;;;;;;26.30;16.65;;;10.60;91.20;;;;;;5063726;28;20043;-70
2022/12/13 11:15:06;;;;;;;26.98;16.60;;;10.40;91.20;;;;;;5062213;28;20375;-70
2022/12/13 11:17:35;;;;;;;29.63;17.55;;;10.40;89.30;;;;;;5073763;28;20032;-70
2022/12/13 11:20:06;;;;;;;29.90;17.95;;;10.50;88.60;;;;;;5067867;28;20059;-70
2022/12/13 11:22:34;;;;;;;29.58;17.20;;;10.70;90.20;;;;;;5029923;28;20368;-70
2022/12/13 11:25:20;;;;;;;28.63;17.65;;;10.70;89.00;;;;;;5053038;28;20131;-69
2022/12/13 11:27:49;;;;;;;28.42;16.67;;;;;;;;;;5071004;28;20083;-68
2022/12/13 11:30:44;;;;;;;28.52;17.27;;;;;;;;;;5072803;28;20090;-65
2022/12/13 11:33:33;;;;;;;29.65;17.65;;;10.70;91.20;;;;;;5020573;28;20140;-70
2022/12/13 11:36:13;;;;;;;31.90;17.35;;;11.00;88.40;;;;;;5055531;28;20051;-69
2022/12/13 11:39:03;;;;;;;27.70;17.50;;;10.80;90.00;;;;;;5035058;28;20045;-68
2022/12/13 11:41:35;;;;;;;28.60;17.42;;;10.80;90.10;;;;;;5034343;28;20056;-66
2022/12/13 11:44:13;;;;;;;29.88;16.20;;;11.20;90.10;;;;;;5044275;28;20040;-62
2022/12/13 11:46:57;;;;;;;28.85;17.30;;;10.90;90.10;;;;;;5054598;28;20482;-66
2022/12/13 11:49:35;;;;;;;29.00;18.30;;;11.10;91.10;;;;;;5055155;28;20418;-69
2022/12/13 11:52:06;;;;;;;29.77;17.58;;;;;;;;;;5051614;28;20411;-65
2022/12/13 11:54:32;;;;;;;31.25;17.02;;;;;;;;;;5049824;28;20438;-68
2022/12/13 11:56:59;;;;;;;29.42;16.90;;;11.20;91.10;;;;;;5014052;28;20531;-69
2022/12/13 11:59:47;;;;;;;29.15;17.15;;;11.30;88.60;;;;;;5013382;28;20049;-70
2022/12/13 12:02:25;;;;;;;31.45;16.75;;;11.20;91.20;;;;;;5013338;28;20048;-68
2022/12/13 12:04:53;;;;;;;27.88;17.13;;;11.00;91.10;;;;;;5046984;28;20505;-70
2022/12/13 12:07:28;;;;;;;29.27;17.85;;;;;;;;;;5052079;28;20037;-69
2022/12/13 12:09:57;;;;;;;28.60;17.17;;;;;;;;;;5053074;28;20052;-69
2022/12/13 12:12:30;;;;;;;28.02;17.50;;;11.30;91.30;;;;;;5037941;28;20484;-68
2022/12/13 12:15:03;;;;;;;29.45;17.60;;;11.20;91.10;;;;;;5042509;28;20045;-69
2022/12/13 12:17:29;;;;;;;28.92;16.75;;;11.00;90.10;;;;;;5036382;28;20041;-69
2022/12/13 12:19:56;;;;;;;30.48;16.67;;;;;;;;;;5053175;28;20048;-69
2022/12/13 12:22:43;;;;;;;29.13;16.95;;;11.20;90.10;;;;;;5034412;28;20088;-69
2022/12/13 12:25:24;;;;;;;26.98;17.17;;;11.20;91.10;;;;;;5050662;28;20049;-68
2022/12/13 12:28:02;;;;;;;27.50;16.42;;;11.40;91.20;;;;;;5053154;28;20047;-69
2022/12/13 12:30:33;;;;;;;27.48;16.42;;;11.10;90.00;;;;;;5030204;28;20072;-68
2022/12/13 12:33:12;;;;;;;27.67;17.00;;;10.90;88.50;;;;;;5052275;28;20049;-68
2022/12/13 12:35:57;;;;;;;26.95;15.75;;;11.00;90.10;;;;;;5050615;28;20040;-68
2022/12/13 12:39:01;;;;;;;27.60;16.33;;;11.00;91.10;;;;;;5052477;28;20048;-69
2022/12/13 12:41:53;;;;;;;23.70;15.95;;;11.10;90.20;;;;;;4972123;28;20433;-68
2022/12/13 12:44:32;;;;;;;24.73;15.43;;;10.80;91.20;;;;;;4970195;28;20047;-68
2022/12/13 12:47:04;;;;;;;28.17;16.67;;;11.00;91.10;;;;;;4960271;28;20057;-68
2022/12/13 12:49:45;;;;;;;25.58;16.58;;;11.00;88.90;;;;;;4975080;28;20054;-67
2022/12/13 12:52:31;;;;;;;29.70;16.27;;;10.90;88.70;;;;;;4984267;28;20121;-68
2022/12/13 12:55:18;;;;;;;27.45;15.93;;;11.10;89.10;;;;;;4991432;28;20234;-68
2022/12/13 12:58:02;;;;;;;30.85;16.40;;;11.10;91.30;;;;;;4991448;28;20046;-68
2022/12/13 13:00:29;;;;;;;33.50;16.13;;;10.80;91.20;;;;;;4975165;28;20447;-68
2022/12/13 13:03:13;;;;;;;23.98;14.70;;;11.00;91.20;;;;;;4971936;28;20053;-68
2022/12/13 13:05:45;;;;;;;27.63;15.80;;;10.90;91.30;;;;;;4957932;28;20110;-68
2022/12/13 13:08:13;;;;;;;26.02;14.93;;;;;;;;;;4956130;28;20075;-68
2022/12/13 13:10:40;;;;;;;27.35;16.30;;;10.80;91.30;;;;;;4971863;28;20043;-69
2022/12/13 13:13:06;;;;;;;25.95;15.13;;;;;;;;;;4955901;28;20046;-69
2022/12/13 13:15:32;;;;;;;28.55;15.13;;;;;;;;;;5008887;28;20415;-69
2022/12/13 13:18:01;;;;;;;24.92;15.23;;;11.00;91.30;;;;;;5036376;28;20125;-69
2022/12/13 13:20:28;;;;;;;28.48;16.20;;;10.80;89.80;;;;;;5050961;28;20099;-68
2022/12/13 13:22:57;;;;;;;29.33;15.73;;;10.70;91.20;;;;;;5051319;28;20046;-68